sensor_id;sensor_type;location;lat;lon;timestamp;temperature;humidity
7366;DHT22;3723;52.220;8.792;2024-02-26T00:01:56;1.40;1.00
7366;DHT22;3723;52.220;8.792;2024-02-26T00:04:23;1.30;1.00
7366;DHT22;3723;52.220;8.792;2024-02-26T00:06:52;1.20;1.00
7366;DHT22;3723;52.220;8.792;2024-02-26T00:09:20;1.20;1.00
7366;DHT22;3723;52.220;8.792;2024-02-26T00:11:47;1.20;1.00
7366;DHT22;3723;52.220;8.792;2024-02-26T00:14:15;1.30;1.00
7366;DHT22;3723;52.220;8.792;2024-02-26T00:16:42;1.30;1.00
7366;DHT22;3723;52.220;8.792;2024-02-26T00:19:10;1.30;8.20
7366;DHT22;3723;52.220;8.792;2024-02-26T00:21:40;1.30;17.60
7366;DHT22;3723;52.220;8.792;2024-02-26T00:24:07;1.40;43.10
7366;DHT22;3723;52.220;8.792;2024-02-26T00:26:34;1.40;49.70
7366;DHT22;3723;52.220;8.792;2024-02-26T00:29:01;1.40;56.50
7366;DHT22;3723;52.220;8.792;2024-02-26T00:31:29;1.40;59.30
7366;DHT22;3723;52.220;8.792;2024-02-26T00:33:56;1.40;82.10
7366;DHT22;3723;52.220;8.792;2024-02-26T00:36:23;1.50;93.30
7366;DHT22;3723;52.220;8.792;2024-02-26T00:38:50;1.50;99.80
7366;DHT22;3723;52.220;8.792;2024-02-26T00:41:16;1.50;99.90
7366;DHT22;3723;52.220;8.792;2024-02-26T00:43:43;1.50;99.90
7366;DHT22;3723;52.220;8.792;2024-02-26T00:46:18;1.50;99.90
7366;DHT22;3723;52.220;8.792;2024-02-26T00:48:46;1.40;99.90
7366;DHT22;3723;52.220;8.792;2024-02-26T00:51:14;1.50;99.90
7366;DHT22;3723;52.220;8.792;2024-02-26T00:53:41;1.40;99.90
7366;DHT22;3723;52.220;8.792;2024-02-26T00:56:08;1.40;99.90
7366;DHT22;3723;52.220;8.792;2024-02-26T00:58:35;1.40;99.90
7366;DHT22;3723;52.220;8.792;2024-02-26T01:01:02;1.40;99.90
7366;DHT22;3723;52.220;8.792;2024-02-26T01:03:28;1.50;99.90
7366;DHT22;3723;52.220;8.792;2024-02-26T01:05:58;1.60;99.90
7366;DHT22;3723;52.220;8.792;2024-02-26T01:08:24;1.60;99.90
7366;DHT22;3723;52.220;8.792;2024-02-26T01:10:51;1.60;99.90
7366;DHT22;3723;52.220;8.792;2024-02-26T01:13:18;1.60;99.90
7366;DHT22;3723;52.220;8.792;2024-02-26T01:15:46;1.50;99.90
7366;DHT22;3723;52.220;8.792;2024-02-26T01:18:13;1.60;99.90
7366;DHT22;3723;52.220;8.792;2024-02-26T01:20:40;1.60;99.90
7366;DHT22;3723;52.220;8.792;2024-02-26T01:23:09;1.60;99.90
7366;DHT22;3723;52.220;8.792;2024-02-26T01:25:36;1.60;99.90
7366;DHT22;3723;52.220;8.792;2024-02-26T01:28:03;1.60;99.90
7366;DHT22;3723;52.220;8.792;2024-02-26T01:30:30;1.60;99.90
7366;DHT22;3723;52.220;8.792;2024-02-26T01:32:57;1.60;99.90
7366;DHT22;3723;52.220;8.792;2024-02-26T01:35:24;1.50;99.90
7366;DHT22;3723;52.220;8.792;2024-02-26T01:37:51;1.50;99.90
7366;DHT22;3723;52.220;8.792;2024-02-26T01:40:20;1.50;99.90
7366;DHT22;3723;52.220;8.792;2024-02-26T01:42:48;1.50;99.90
7366;DHT22;3723;52.220;8.792;2024-02-26T01:45:16;1.50;99.90
7366;DHT22;3723;52.220;8.792;2024-02-26T01:47:48;1.50;99.90
7366;DHT22;3723;52.220;8.792;2024-02-26T01:50:16;1.40;99.90
7366;DHT22;3723;52.220;8.792;2024-02-26T01:52:44;1.40;99.90
7366;DHT22;3723;52.220;8.792;2024-02-26T01:55:12;1.40;99.90
7366;DHT22;3723;52.220;8.792;2024-02-26T01:57:42;1.30;99.90
7366;DHT22;3723;52.220;8.792;2024-02-26T02:00:10;1.30;99.90
7366;DHT22;3723;52.220;8.792;2024-02-26T02:02:38;1.30;99.90
7366;DHT22;3723;52.220;8.792;2024-02-26T02:05:08;1.20;99.90
7366;DHT22;3723;52.220;8.792;2024-02-26T02:07:36;1.20;99.90
7366;DHT22;3723;52.220;8.792;2024-02-26T02:10:04;1.10;99.90
7366;DHT22;3723;52.220;8.792;2024-02-26T02:12:32;1.20;99.90
7366;DHT22;3723;52.220;8.792;2024-02-26T02:15:01;1.20;99.90
7366;DHT22;3723;52.220;8.792;2024-02-26T02:17:28;1.20;99.90
7366;DHT22;3723;52.220;8.792;2024-02-26T02:19:55;1.30;99.90
7366;DHT22;3723;52.220;8.792;2024-02-26T02:22:24;1.30;99.90
7366;DHT22;3723;52.220;8.792;2024-02-26T02:24:52;1.30;99.90
7366;DHT22;3723;52.220;8.792;2024-02-26T02:27:19;1.30;99.90
7366;DHT22;3723;52.220;8.792;2024-02-26T02:29:47;1.30;99.90
7366;DHT22;3723;52.220;8.792;2024-02-26T02:32:14;1.20;99.90
7366;DHT22;3723;52.220;8.792;2024-02-26T02:34:43;1.20;99.90
7366;DHT22;3723;52.220;8.792;2024-02-26T02:37:11;1.10;99.90
7366;DHT22;3723;52.220;8.792;2024-02-26T02:39:39;1.10;99.90
7366;DHT22;3723;52.220;8.792;2024-02-26T02:42:08;1.00;99.90
7366;DHT22;3723;52.220;8.792;2024-02-26T02:44:36;0.90;99.90
7366;DHT22;3723;52.220;8.792;2024-02-26T02:47:03;0.90;99.90
7366;DHT22;3723;52.220;8.792;2024-02-26T02:49:30;0.90;99.90
7366;DHT22;3723;52.220;8.792;2024-02-26T02:51:57;0.90;99.90
7366;DHT22;3723;52.220;8.792;2024-02-26T02:54:24;0.90;99.90
7366;DHT22;3723;52.220;8.792;2024-02-26T02:56:52;0.90;99.90
7366;DHT22;3723;52.220;8.792;2024-02-26T02:59:19;0.90;99.90
7366;DHT22;3723;52.220;8.792;2024-02-26T03:01:46;0.90;99.90
7366;DHT22;3723;52.220;8.792;2024-02-26T03:04:13;0.90;99.90
7366;DHT22;3723;52.220;8.792;2024-02-26T03:06:40;0.90;99.90
7366;DHT22;3723;52.220;8.792;2024-02-26T03:09:06;1.00;99.90
7366;DHT22;3723;52.220;8.792;2024-02-26T03:11:33;1.10;99.90
7366;DHT22;3723;52.220;8.792;2024-02-26T03:14:02;1.10;99.90
7366;DHT22;3723;52.220;8.792;2024-02-26T03:16:30;1.20;99.90
7366;DHT22;3723;52.220;8.792;2024-02-26T03:18:56;1.20;99.90
7366;DHT22;3723;52.220;8.792;2024-02-26T03:21:24;1.30;99.90
7366;DHT22;3723;52.220;8.792;2024-02-26T03:23:51;1.40;99.90
7366;DHT22;3723;52.220;8.792;2024-02-26T03:26:18;1.50;99.90
7366;DHT22;3723;52.220;8.792;2024-02-26T03:28:45;1.50;99.90
7366;DHT22;3723;52.220;8.792;2024-02-26T03:31:14;1.60;99.90
7366;DHT22;3723;52.220;8.792;2024-02-26T03:33:40;1.70;99.90
7366;DHT22;3723;52.220;8.792;2024-02-26T03:36:07;1.60;99.90
7366;DHT22;3723;52.220;8.792;2024-02-26T03:38:34;1.60;99.90
7366;DHT22;3723;52.220;8.792;2024-02-26T03:41:01;1.60;99.90
7366;DHT22;3723;52.220;8.792;2024-02-26T03:43:28;1.60;99.90
7366;DHT22;3723;52.220;8.792;2024-02-26T03:45:55;1.70;99.90
7366;DHT22;3723;52.220;8.792;2024-02-26T03:48:23;1.70;99.90
7366;DHT22;3723;52.220;8.792;2024-02-26T03:50:49;1.70;99.90
7366;DHT22;3723;52.220;8.792;2024-02-26T03:53:16;1.70;99.90
7366;DHT22;3723;52.220;8.792;2024-02-26T03:55:43;1.60;99.90
7366;DHT22;3723;52.220;8.792;2024-02-26T03:58:12;1.70;99.90
7366;DHT22;3723;52.220;8.792;2024-02-26T04:00:39;1.60;99.90
7366;DHT22;3723;52.220;8.792;2024-02-26T04:03:06;1.70;99.90
7366;DHT22;3723;52.220;8.792;2024-02-26T04:05:34;1.70;99.90
7366;DHT22;3723;52.220;8.792;2024-02-26T04:08:01;1.70;99.90
7366;DHT22;3723;52.220;8.792;2024-02-26T04:10:29;1.80;99.90
7366;DHT22;3723;52.220;8.792;2024-02-26T04:12:56;1.70;99.90
7366;DHT22;3723;52.220;8.792;2024-02-26T04:15:23;1.80;99.90
7366;DHT22;3723;52.220;8.792;2024-02-26T04:17:50;1.80;99.90
7366;DHT22;3723;52.220;8.792;2024-02-26T04:20:18;1.80;99.90
7366;DHT22;3723;52.220;8.792;2024-02-26T04:22:47;1.80;99.90
7366;DHT22;3723;52.220;8.792;2024-02-26T04:25:14;1.80;99.90
7366;DHT22;3723;52.220;8.792;2024-02-26T04:27:40;1.90;99.90
7366;DHT22;3723;52.220;8.792;2024-02-26T04:30:08;1.90;99.90
7366;DHT22;3723;52.220;8.792;2024-02-26T04:32:35;1.90;1.00
7366;DHT22;3723;52.220;8.792;2024-02-26T04:35:02;2.00;1.00
7366;DHT22;3723;52.220;8.792;2024-02-26T04:37:29;2.00;1.00
7366;DHT22;3723;52.220;8.792;2024-02-26T04:39:59;2.10;1.00
7366;DHT22;3723;52.220;8.792;2024-02-26T04:42:26;2.20;1.00
7366;DHT22;3723;52.220;8.792;2024-02-26T04:44:54;2.30;1.00
7366;DHT22;3723;52.220;8.792;2024-02-26T04:47:21;2.40;1.00
7366;DHT22;3723;52.220;8.792;2024-02-26T04:49:49;2.60;1.00
7366;DHT22;3723;52.220;8.792;2024-02-26T04:52:16;2.60;1.00
7366;DHT22;3723;52.220;8.792;2024-02-26T04:54:42;2.70;1.00
7366;DHT22;3723;52.220;8.792;2024-02-26T04:57:11;2.80;1.00
7366;DHT22;3723;52.220;8.792;2024-02-26T04:59:37;2.80;1.00
7366;DHT22;3723;52.220;8.792;2024-02-26T05:02:06;2.90;1.00
7366;DHT22;3723;52.220;8.792;2024-02-26T05:04:32;2.90;1.00
7366;DHT22;3723;52.220;8.792;2024-02-26T05:06:59;2.90;1.00
7366;DHT22;3723;52.220;8.792;2024-02-26T05:09:26;2.90;1.00
7366;DHT22;3723;52.220;8.792;2024-02-26T05:11:53;2.90;1.00
7366;DHT22;3723;52.220;8.792;2024-02-26T05:14:22;2.90;1.00
7366;DHT22;3723;52.220;8.792;2024-02-26T05:16:49;3.00;1.00
7366;DHT22;3723;52.220;8.792;2024-02-26T05:19:15;2.90;1.00
7366;DHT22;3723;52.220;8.792;2024-02-26T05:21:42;2.90;1.00
7366;DHT22;3723;52.220;8.792;2024-02-26T05:24:10;2.90;1.00
7366;DHT22;3723;52.220;8.792;2024-02-26T05:26:37;2.90;1.00
7366;DHT22;3723;52.220;8.792;2024-02-26T05:29:04;2.90;1.00
7366;DHT22;3723;52.220;8.792;2024-02-26T05:31:32;2.90;1.00
7366;DHT22;3723;52.220;8.792;2024-02-26T05:33:59;2.90;1.00
7366;DHT22;3723;52.220;8.792;2024-02-26T05:36:25;2.90;1.00
7366;DHT22;3723;52.220;8.792;2024-02-26T05:38:54;2.90;1.00
7366;DHT22;3723;52.220;8.792;2024-02-26T05:41:21;2.90;1.00
7366;DHT22;3723;52.220;8.792;2024-02-26T05:43:50;3.00;1.00
7366;DHT22;3723;52.220;8.792;2024-02-26T05:46:17;2.90;1.00
7366;DHT22;3723;52.220;8.792;2024-02-26T05:48:47;2.90;1.00
7366;DHT22;3723;52.220;8.792;2024-02-26T05:51:14;2.80;1.00
7366;DHT22;3723;52.220;8.792;2024-02-26T05:53:41;2.80;1.00
7366;DHT22;3723;52.220;8.792;2024-02-26T05:56:10;2.70;1.00
7366;DHT22;3723;52.220;8.792;2024-02-26T05:58:37;2.80;1.00
7366;DHT22;3723;52.220;8.792;2024-02-26T06:01:04;2.80;1.00
7366;DHT22;3723;52.220;8.792;2024-02-26T06:03:30;2.80;1.00
7366;DHT22;3723;52.220;8.792;2024-02-26T06:05:59;2.80;1.00
7366;DHT22;3723;52.220;8.792;2024-02-26T06:08:26;2.90;1.00
7366;DHT22;3723;52.220;8.792;2024-02-26T06:10:53;2.90;1.00
7366;DHT22;3723;52.220;8.792;2024-02-26T06:13:19;2.90;1.00
7366;DHT22;3723;52.220;8.792;2024-02-26T06:15:46;2.90;1.00
7366;DHT22;3723;52.220;8.792;2024-02-26T06:18:13;3.00;1.00
7366;DHT22;3723;52.220;8.792;2024-02-26T06:20:42;3.00;1.00
7366;DHT22;3723;52.220;8.792;2024-02-26T06:23:12;3.00;1.00
7366;DHT22;3723;52.220;8.792;2024-02-26T06:25:39;3.10;1.00
7366;DHT22;3723;52.220;8.792;2024-02-26T06:28:07;3.10;1.00
7366;DHT22;3723;52.220;8.792;2024-02-26T06:30:34;3.10;1.00
7366;DHT22;3723;52.220;8.792;2024-02-26T06:33:01;3.20;1.00
7366;DHT22;3723;52.220;8.792;2024-02-26T06:35:28;3.10;1.00
7366;DHT22;3723;52.220;8.792;2024-02-26T06:37:55;3.20;1.00
7366;DHT22;3723;52.220;8.792;2024-02-26T06:40:23;3.20;1.00
7366;DHT22;3723;52.220;8.792;2024-02-26T06:42:50;3.20;1.00
7366;DHT22;3723;52.220;8.792;2024-02-26T06:45:18;3.30;1.00
7366;DHT22;3723;52.220;8.792;2024-02-26T06:47:45;3.30;1.00
7366;DHT22;3723;52.220;8.792;2024-02-26T06:50:12;3.30;1.00
7366;DHT22;3723;52.220;8.792;2024-02-26T06:52:40;3.40;1.00
7366;DHT22;3723;52.220;8.792;2024-02-26T06:55:07;3.50;1.00
7366;DHT22;3723;52.220;8.792;2024-02-26T06:57:39;3.50;99.90
7366;DHT22;3723;52.220;8.792;2024-02-26T07:00:07;3.60;99.90
7366;DHT22;3723;52.220;8.792;2024-02-26T07:02:34;3.60;99.90
7366;DHT22;3723;52.220;8.792;2024-02-26T07:05:01;3.70;99.90
7366;DHT22;3723;52.220;8.792;2024-02-26T07:07:28;3.60;99.90
7366;DHT22;3723;52.220;8.792;2024-02-26T07:09:55;3.70;99.90
7366;DHT22;3723;52.220;8.792;2024-02-26T07:12:23;3.70;51.40
7366;DHT22;3723;52.220;8.792;2024-02-26T07:14:51;3.80;8.90
7366;DHT22;3723;52.220;8.792;2024-02-26T07:17:18;3.80;1.00
7366;DHT22;3723;52.220;8.792;2024-02-26T07:19:45;3.90;1.00
7366;DHT22;3723;52.220;8.792;2024-02-26T07:22:12;3.90;1.00
7366;DHT22;3723;52.220;8.792;2024-02-26T07:24:41;4.00;1.00
7366;DHT22;3723;52.220;8.792;2024-02-26T07:27:08;4.00;1.00
7366;DHT22;3723;52.220;8.792;2024-02-26T07:29:35;4.00;1.00
7366;DHT22;3723;52.220;8.792;2024-02-26T07:32:05;4.10;1.00
7366;DHT22;3723;52.220;8.792;2024-02-26T07:34:33;4.10;99.90
7366;DHT22;3723;52.220;8.792;2024-02-26T07:37:01;4.10;99.90
7366;DHT22;3723;52.220;8.792;2024-02-26T07:39:29;4.10;99.90
7366;DHT22;3723;52.220;8.792;2024-02-26T07:41:57;4.10;99.90
7366;DHT22;3723;52.220;8.792;2024-02-26T07:44:26;4.20;99.90
7366;DHT22;3723;52.220;8.792;2024-02-26T07:46:54;4.20;99.90
7366;DHT22;3723;52.220;8.792;2024-02-26T07:49:22;4.30;99.90
7366;DHT22;3723;52.220;8.792;2024-02-26T07:51:51;4.30;99.90
7366;DHT22;3723;52.220;8.792;2024-02-26T07:54:18;4.30;99.90
7366;DHT22;3723;52.220;8.792;2024-02-26T07:56:45;4.40;99.90
7366;DHT22;3723;52.220;8.792;2024-02-26T07:59:12;4.40;61.90
7366;DHT22;3723;52.220;8.792;2024-02-26T08:01:38;4.40;41.40
7366;DHT22;3723;52.220;8.792;2024-02-26T08:04:07;4.50;24.20
7366;DHT22;3723;52.220;8.792;2024-02-26T08:06:35;4.50;21.40
7366;DHT22;3723;52.220;8.792;2024-02-26T08:09:02;4.50;3.80
7366;DHT22;3723;52.220;8.792;2024-02-26T08:11:29;4.50;1.00
7366;DHT22;3723;52.220;8.792;2024-02-26T08:13:56;4.60;1.00
7366;DHT22;3723;52.220;8.792;2024-02-26T08:16:24;4.60;1.00
7366;DHT22;3723;52.220;8.792;2024-02-26T08:18:51;4.70;1.00
7366;DHT22;3723;52.220;8.792;2024-02-26T08:21:20;4.70;1.00
7366;DHT22;3723;52.220;8.792;2024-02-26T08:23:49;4.70;1.00
7366;DHT22;3723;52.220;8.792;2024-02-26T08:26:16;4.80;1.00
7366;DHT22;3723;52.220;8.792;2024-02-26T08:28:46;4.70;1.00
7366;DHT22;3723;52.220;8.792;2024-02-26T08:31:14;4.80;1.00
7366;DHT22;3723;52.220;8.792;2024-02-26T08:33:41;4.90;1.00
7366;DHT22;3723;52.220;8.792;2024-02-26T08:36:11;5.00;1.00
7366;DHT22;3723;52.220;8.792;2024-02-26T08:38:38;5.00;1.00
7366;DHT22;3723;52.220;8.792;2024-02-26T08:41:06;5.10;1.00
7366;DHT22;3723;52.220;8.792;2024-02-26T08:43:33;5.10;1.00
7366;DHT22;3723;52.220;8.792;2024-02-26T08:46:00;5.20;1.00
7366;DHT22;3723;52.220;8.792;2024-02-26T08:48:28;5.30;1.00
7366;DHT22;3723;52.220;8.792;2024-02-26T08:50:55;5.30;1.00
7366;DHT22;3723;52.220;8.792;2024-02-26T08:53:23;5.40;1.00
7366;DHT22;3723;52.220;8.792;2024-02-26T08:55:52;5.40;1.00
7366;DHT22;3723;52.220;8.792;2024-02-26T08:58:20;5.40;1.00
7366;DHT22;3723;52.220;8.792;2024-02-26T09:00:48;5.50;1.00
7366;DHT22;3723;52.220;8.792;2024-02-26T09:03:15;5.50;1.00
7366;DHT22;3723;52.220;8.792;2024-02-26T09:05:43;5.50;1.00
7366;DHT22;3723;52.220;8.792;2024-02-26T09:08:10;5.60;1.00
7366;DHT22;3723;52.220;8.792;2024-02-26T09:10:37;5.70;1.00
7366;DHT22;3723;52.220;8.792;2024-02-26T09:13:05;5.70;1.00
7366;DHT22;3723;52.220;8.792;2024-02-26T09:15:35;5.80;1.00
7366;DHT22;3723;52.220;8.792;2024-02-26T09:18:04;5.90;1.00
7366;DHT22;3723;52.220;8.792;2024-02-26T09:20:31;6.00;1.00
7366;DHT22;3723;52.220;8.792;2024-02-26T09:22:58;6.10;1.00
7366;DHT22;3723;52.220;8.792;2024-02-26T09:25:36;6.20;1.00
7366;DHT22;3723;52.220;8.792;2024-02-26T09:28:04;6.20;1.00
7366;DHT22;3723;52.220;8.792;2024-02-26T09:30:31;6.30;1.00
7366;DHT22;3723;52.220;8.792;2024-02-26T09:33:00;6.40;1.00
7366;DHT22;3723;52.220;8.792;2024-02-26T09:35:27;6.40;1.00
7366;DHT22;3723;52.220;8.792;2024-02-26T09:37:56;6.50;1.00
7366;DHT22;3723;52.220;8.792;2024-02-26T09:40:25;6.60;1.00
7366;DHT22;3723;52.220;8.792;2024-02-26T09:42:59;6.70;1.00
7366;DHT22;3723;52.220;8.792;2024-02-26T09:45:28;6.70;1.00
7366;DHT22;3723;52.220;8.792;2024-02-26T09:47:57;6.60;1.00
7366;DHT22;3723;52.220;8.792;2024-02-26T09:50:26;6.60;1.00
7366;DHT22;3723;52.220;8.792;2024-02-26T09:52:54;6.60;1.00
7366;DHT22;3723;52.220;8.792;2024-02-26T09:55:23;6.60;1.00
7366;DHT22;3723;52.220;8.792;2024-02-26T09:57:51;6.60;1.00
7366;DHT22;3723;52.220;8.792;2024-02-26T10:00:19;6.70;1.00
7366;DHT22;3723;52.220;8.792;2024-02-26T10:02:47;6.80;1.00
7366;DHT22;3723;52.220;8.792;2024-02-26T10:05:17;6.90;1.00
7366;DHT22;3723;52.220;8.792;2024-02-26T10:07:46;7.00;1.00
7366;DHT22;3723;52.220;8.792;2024-02-26T10:10:14;7.00;1.00
7366;DHT22;3723;52.220;8.792;2024-02-26T10:12:41;7.00;1.00
7366;DHT22;3723;52.220;8.792;2024-02-26T10:15:09;7.10;1.00
7366;DHT22;3723;52.220;8.792;2024-02-26T10:17:36;7.00;1.00
7366;DHT22;3723;52.220;8.792;2024-02-26T10:20:12;7.00;1.00
7366;DHT22;3723;52.220;8.792;2024-02-26T10:22:40;7.10;1.00
7366;DHT22;3723;52.220;8.792;2024-02-26T10:25:09;7.20;1.00
7366;DHT22;3723;52.220;8.792;2024-02-26T10:27:37;7.30;1.00
7366;DHT22;3723;52.220;8.792;2024-02-26T10:30:05;7.30;99.90
7366;DHT22;3723;52.220;8.792;2024-02-26T10:32:41;7.20;99.90
7366;DHT22;3723;52.220;8.792;2024-02-26T10:35:09;7.10;99.90
7366;DHT22;3723;52.220;8.792;2024-02-26T10:37:36;7.10;99.90
7366;DHT22;3723;52.220;8.792;2024-02-26T10:40:04;7.20;99.90
7366;DHT22;3723;52.220;8.792;2024-02-26T10:42:33;7.20;99.90
7366;DHT22;3723;52.220;8.792;2024-02-26T10:45:00;7.20;99.90
7366;DHT22;3723;52.220;8.792;2024-02-26T10:47:28;7.30;99.90
7366;DHT22;3723;52.220;8.792;2024-02-26T10:49:56;7.40;99.90
7366;DHT22;3723;52.220;8.792;2024-02-26T10:52:25;7.50;99.90
7366;DHT22;3723;52.220;8.792;2024-02-26T10:54:54;7.60;99.90
7366;DHT22;3723;52.220;8.792;2024-02-26T10:57:24;7.70;99.90
7366;DHT22;3723;52.220;8.792;2024-02-26T10:59:55;7.70;99.90
7366;DHT22;3723;52.220;8.792;2024-02-26T11:02:23;7.60;99.90
7366;DHT22;3723;52.220;8.792;2024-02-26T11:04:51;7.60;99.90
7366;DHT22;3723;52.220;8.792;2024-02-26T11:07:19;7.60;99.90
7366;DHT22;3723;52.220;8.792;2024-02-26T11:09:47;7.60;99.90
7366;DHT22;3723;52.220;8.792;2024-02-26T11:12:18;7.70;99.90
7366;DHT22;3723;52.220;8.792;2024-02-26T11:14:46;7.70;99.90
7366;DHT22;3723;52.220;8.792;2024-02-26T11:17:16;7.70;99.90
7366;DHT22;3723;52.220;8.792;2024-02-26T11:19:45;7.80;99.90
7366;DHT22;3723;52.220;8.792;2024-02-26T11:22:12;7.90;99.90
7366;DHT22;3723;52.220;8.792;2024-02-26T11:24:40;7.90;99.90
7366;DHT22;3723;52.220;8.792;2024-02-26T11:27:10;8.00;99.90
7366;DHT22;3723;52.220;8.792;2024-02-26T11:29:41;8.00;99.90
7366;DHT22;3723;52.220;8.792;2024-02-26T11:32:10;7.90;99.90
7366;DHT22;3723;52.220;8.792;2024-02-26T11:34:38;8.00;99.90
7366;DHT22;3723;52.220;8.792;2024-02-26T11:37:10;8.00;99.90
7366;DHT22;3723;52.220;8.792;2024-02-26T11:39:37;8.10;99.90
7366;DHT22;3723;52.220;8.792;2024-02-26T11:42:06;8.20;99.90
7366;DHT22;3723;52.220;8.792;2024-02-26T11:44:36;8.20;99.90
7366;DHT22;3723;52.220;8.792;2024-02-26T11:47:10;8.20;99.90
7366;DHT22;3723;52.220;8.792;2024-02-26T11:49:39;8.10;99.90
7366;DHT22;3723;52.220;8.792;2024-02-26T11:52:08;8.00;99.90
7366;DHT22;3723;52.220;8.792;2024-02-26T11:54:45;8.00;99.90
7366;DHT22;3723;52.220;8.792;2024-02-26T11:57:25;8.10;99.90
7366;DHT22;3723;52.220;8.792;2024-02-26T11:59:53;8.20;99.90
7366;DHT22;3723;52.220;8.792;2024-02-26T12:02:45;8.40;99.90
7366;DHT22;3723;52.220;8.792;2024-02-26T12:05:15;8.50;99.90
7366;DHT22;3723;52.220;8.792;2024-02-26T12:07:44;8.50;99.90
7366;DHT22;3723;52.220;8.792;2024-02-26T12:10:16;8.50;99.90
7366;DHT22;3723;52.220;8.792;2024-02-26T12:12:46;8.40;99.90
7366;DHT22;3723;52.220;8.792;2024-02-26T12:15:15;8.30;99.90
7366;DHT22;3723;52.220;8.792;2024-02-26T12:17:48;8.30;99.90
7366;DHT22;3723;52.220;8.792;2024-02-26T12:20:18;8.10;99.90
7366;DHT22;3723;52.220;8.792;2024-02-26T12:22:46;8.00;99.90
7366;DHT22;3723;52.220;8.792;2024-02-26T12:25:14;8.00;99.90
7366;DHT22;3723;52.220;8.792;2024-02-26T12:27:41;8.00;99.90
7366;DHT22;3723;52.220;8.792;2024-02-26T12:30:09;7.90;99.90
7366;DHT22;3723;52.220;8.792;2024-02-26T12:32:36;8.00;99.90
7366;DHT22;3723;52.220;8.792;2024-02-26T12:35:05;8.00;99.90
7366;DHT22;3723;52.220;8.792;2024-02-26T12:37:34;8.10;99.90
7366;DHT22;3723;52.220;8.792;2024-02-26T12:40:04;8.20;99.90
7366;DHT22;3723;52.220;8.792;2024-02-26T12:42:33;8.20;99.90
7366;DHT22;3723;52.220;8.792;2024-02-26T12:45:06;8.30;99.90
7366;DHT22;3723;52.220;8.792;2024-02-26T12:47:36;8.40;99.90
7366;DHT22;3723;52.220;8.792;2024-02-26T12:50:03;8.50;99.90
7366;DHT22;3723;52.220;8.792;2024-02-26T12:52:31;8.60;99.90
7366;DHT22;3723;52.220;8.792;2024-02-26T12:55:01;8.70;99.90
7366;DHT22;3723;52.220;8.792;2024-02-26T12:57:30;8.70;99.90
7366;DHT22;3723;52.220;8.792;2024-02-26T12:59:57;8.70;99.90
7366;DHT22;3723;52.220;8.792;2024-02-26T13:02:25;8.80;99.90
7366;DHT22;3723;52.220;8.792;2024-02-26T13:04:52;8.80;99.90
7366;DHT22;3723;52.220;8.792;2024-02-26T13:07:20;8.80;99.90
7366;DHT22;3723;52.220;8.792;2024-02-26T13:09:47;8.80;99.90
7366;DHT22;3723;52.220;8.792;2024-02-26T13:12:16;8.80;99.90
7366;DHT22;3723;52.220;8.792;2024-02-26T13:14:43;8.70;99.90
7366;DHT22;3723;52.220;8.792;2024-02-26T13:17:10;8.70;99.90
7366;DHT22;3723;52.220;8.792;2024-02-26T13:19:37;8.60;99.90
7366;DHT22;3723;52.220;8.792;2024-02-26T13:22:05;8.50;99.90
7366;DHT22;3723;52.220;8.792;2024-02-26T13:24:34;8.50;99.90
7366;DHT22;3723;52.220;8.792;2024-02-26T13:27:02;8.40;99.90
7366;DHT22;3723;52.220;8.792;2024-02-26T13:29:32;8.40;99.90
7366;DHT22;3723;52.220;8.792;2024-02-26T13:31:59;8.50;99.90
7366;DHT22;3723;52.220;8.792;2024-02-26T13:34:28;8.50;99.90
7366;DHT22;3723;52.220;8.792;2024-02-26T13:36:56;8.50;99.90
7366;DHT22;3723;52.220;8.792;2024-02-26T13:39:24;8.60;99.90
7366;DHT22;3723;52.220;8.792;2024-02-26T13:41:51;8.60;99.90
7366;DHT22;3723;52.220;8.792;2024-02-26T13:44:19;8.60;99.90
7366;DHT22;3723;52.220;8.792;2024-02-26T13:46:48;8.60;99.90
7366;DHT22;3723;52.220;8.792;2024-02-26T13:49:16;8.60;99.90
7366;DHT22;3723;52.220;8.792;2024-02-26T13:51:43;8.50;99.90
7366;DHT22;3723;52.220;8.792;2024-02-26T13:54:10;8.50;99.90
7366;DHT22;3723;52.220;8.792;2024-02-26T13:56:37;8.40;99.90
7366;DHT22;3723;52.220;8.792;2024-02-26T13:59:04;8.40;99.90
7366;DHT22;3723;52.220;8.792;2024-02-26T14:01:32;8.40;99.90
7366;DHT22;3723;52.220;8.792;2024-02-26T14:04:01;8.30;99.90
7366;DHT22;3723;52.220;8.792;2024-02-26T14:06:30;8.30;99.90
7366;DHT22;3723;52.220;8.792;2024-02-26T14:08:57;8.30;99.90
7366;DHT22;3723;52.220;8.792;2024-02-26T14:11:24;8.30;99.90
7366;DHT22;3723;52.220;8.792;2024-02-26T14:13:52;8.30;99.90
7366;DHT22;3723;52.220;8.792;2024-02-26T14:16:19;8.30;99.90
7366;DHT22;3723;52.220;8.792;2024-02-26T14:18:46;8.30;99.90
7366;DHT22;3723;52.220;8.792;2024-02-26T14:21:14;8.30;99.90
7366;DHT22;3723;52.220;8.792;2024-02-26T14:23:41;8.30;99.90
7366;DHT22;3723;52.220;8.792;2024-02-26T14:26:09;8.20;99.90
7366;DHT22;3723;52.220;8.792;2024-02-26T14:28:36;8.10;99.90
7366;DHT22;3723;52.220;8.792;2024-02-26T14:31:06;8.10;99.90
7366;DHT22;3723;52.220;8.792;2024-02-26T14:33:37;8.10;99.90
7366;DHT22;3723;52.220;8.792;2024-02-26T14:36:05;8.10;99.90
7366;DHT22;3723;52.220;8.792;2024-02-26T14:38:33;8.00;99.90
7366;DHT22;3723;52.220;8.792;2024-02-26T14:41:00;8.10;99.90
7366;DHT22;3723;52.220;8.792;2024-02-26T14:43:27;8.10;99.90
7366;DHT22;3723;52.220;8.792;2024-02-26T14:45:55;8.10;99.90
7366;DHT22;3723;52.220;8.792;2024-02-26T14:48:22;8.10;99.90
7366;DHT22;3723;52.220;8.792;2024-02-26T14:50:50;8.10;99.90
7366;DHT22;3723;52.220;8.792;2024-02-26T14:53:17;8.10;99.90
7366;DHT22;3723;52.220;8.792;2024-02-26T14:55:45;8.10;99.90
7366;DHT22;3723;52.220;8.792;2024-02-26T14:58:12;8.00;99.90
7366;DHT22;3723;52.220;8.792;2024-02-26T15:00:39;8.10;99.90
7366;DHT22;3723;52.220;8.792;2024-02-26T15:03:06;8.10;99.90
7366;DHT22;3723;52.220;8.792;2024-02-26T15:05:33;8.10;99.90
7366;DHT22;3723;52.220;8.792;2024-02-26T15:08:00;7.90;99.90
7366;DHT22;3723;52.220;8.792;2024-02-26T15:10:28;8.10;99.90
7366;DHT22;3723;52.220;8.792;2024-02-26T15:12:56;8.10;99.90
7366;DHT22;3723;52.220;8.792;2024-02-26T15:15:23;8.10;99.90
7366;DHT22;3723;52.220;8.792;2024-02-26T15:17:49;8.10;99.90
7366;DHT22;3723;52.220;8.792;2024-02-26T15:20:17;8.10;99.90
7366;DHT22;3723;52.220;8.792;2024-02-26T15:22:46;8.10;99.90
7366;DHT22;3723;52.220;8.792;2024-02-26T15:25:13;8.10;99.90
7366;DHT22;3723;52.220;8.792;2024-02-26T15:27:40;8.10;99.90
7366;DHT22;3723;52.220;8.792;2024-02-26T15:30:10;8.00;99.90
7366;DHT22;3723;52.220;8.792;2024-02-26T15:32:37;8.00;99.90
7366;DHT22;3723;52.220;8.792;2024-02-26T15:35:05;8.00;99.90
7366;DHT22;3723;52.220;8.792;2024-02-26T15:37:32;7.90;99.90
7366;DHT22;3723;52.220;8.792;2024-02-26T15:39:59;7.80;99.90
7366;DHT22;3723;52.220;8.792;2024-02-26T15:42:26;7.70;99.90
7366;DHT22;3723;52.220;8.792;2024-02-26T15:44:53;7.60;99.90
7366;DHT22;3723;52.220;8.792;2024-02-26T15:47:22;7.50;99.90
7366;DHT22;3723;52.220;8.792;2024-02-26T15:49:48;7.40;99.90
7366;DHT22;3723;52.220;8.792;2024-02-26T15:52:17;7.30;99.90
7366;DHT22;3723;52.220;8.792;2024-02-26T15:54:44;7.30;99.90
7366;DHT22;3723;52.220;8.792;2024-02-26T15:57:12;7.20;99.90
7366;DHT22;3723;52.220;8.792;2024-02-26T15:59:40;7.20;99.90
7366;DHT22;3723;52.220;8.792;2024-02-26T16:02:06;7.20;99.90
7366;DHT22;3723;52.220;8.792;2024-02-26T16:04:35;7.10;99.90
7366;DHT22;3723;52.220;8.792;2024-02-26T16:07:04;7.10;99.90
7366;DHT22;3723;52.220;8.792;2024-02-26T16:09:36;7.00;99.90
7366;DHT22;3723;52.220;8.792;2024-02-26T16:12:07;6.90;99.90
7366;DHT22;3723;52.220;8.792;2024-02-26T16:14:43;6.90;99.90
7366;DHT22;3723;52.220;8.792;2024-02-26T16:17:17;6.90;99.90
7366;DHT22;3723;52.220;8.792;2024-02-26T16:19:46;6.80;99.90
7366;DHT22;3723;52.220;8.792;2024-02-26T16:22:13;6.70;99.90
7366;DHT22;3723;52.220;8.792;2024-02-26T16:24:41;6.70;99.90
7366;DHT22;3723;52.220;8.792;2024-02-26T16:27:09;6.70;99.90
7366;DHT22;3723;52.220;8.792;2024-02-26T16:29:37;6.60;99.90